Time;durP1;ratioP1;P1;durP2;ratioP2;P2;SDS_P1;SDS_P2;PMS_P1;PMS_P2;Temp;Humidity;BMP_temperature;BMP_pressure;BME280_temperature;BME280_humidity;BME280_pressure;Samples;Min_cycle;Max_cycle;Signal;HPM_P1;HPM_P2
2024/04/04 00:00:14;;;;;;;;;;;7.40;99.90;;;;;;4940108;29;19918;-52
2024/04/04 00:02:40;;;;;;;;;;;7.40;99.90;;;;;;4957730;29;19907;-55
2024/04/04 00:05:05;;;;;;;;;;;7.40;99.90;;;;;;4957761;29;20294;-53
2024/04/04 00:07:31;;;;;;;;;;;7.40;99.90;;;;;;4957088;29;19910;-54
2024/04/04 00:09:57;;;;;;;;;;;7.40;99.90;;;;;;4957289;29;19907;-56
2024/04/04 00:12:24;;;;;;;;;;;7.40;99.90;;;;;;4940204;29;19977;-52
2024/04/04 00:14:49;;;;;;;;;;;7.50;99.90;;;;;;4957396;29;19906;-56
2024/04/04 00:17:15;;;;;;;;;;;7.50;99.90;;;;;;4957471;29;20030;-50
2024/04/04 00:19:40;;;;;;;;;;;7.50;99.90;;;;;;4957156;29;19907;-53
2024/04/04 00:22:06;;;;;;;;;;;7.40;99.90;;;;;;4957175;29;19910;-53
2024/04/04 00:24:31;;;;;;;;;;;7.40;99.90;;;;;;4956875;29;19911;-51
2024/04/04 00:26:57;;;;;;;;;;;7.40;99.90;;;;;;4957090;29;19910;-52
2024/04/04 00:29:22;;;;;;;;;;;7.40;99.90;;;;;;4957171;29;19910;-53
2024/04/04 00:31:48;;;;;;;;;;;7.40;99.90;;;;;;4971674;28;20287;-56
2024/04/04 00:34:13;;;;;;;;;;;7.40;99.90;;;;;;4976458;28;19957;-55
2024/04/04 00:36:39;;;;;;;;;;;7.40;99.90;;;;;;4976292;28;19953;-55
2024/04/04 00:39:04;;;;;;;;;;;7.30;99.90;;;;;;4976486;28;19921;-56
2024/04/04 00:41:30;;;;;;;;;;;7.30;99.90;;;;;;4975606;28;19921;-55
2024/04/04 00:43:56;;;;;;;;;;;7.40;99.90;;;;;;4976084;28;19981;-52
2024/04/04 00:46:21;;;;;;;;;;;7.40;99.90;;;;;;4975995;28;20406;-56
2024/04/04 00:48:47;;;;;;;;;;;7.50;99.90;;;;;;4976406;28;19906;-51
2024/04/04 00:51:12;;;;;;;;;;;7.60;99.90;;;;;;4976041;28;20008;-52
2024/04/04 00:53:38;;;;;;;;;;;7.70;99.90;;;;;;4975146;28;19913;-54
2024/04/04 00:56:03;;;;;;;;;;;7.70;99.90;;;;;;4976262;28;19906;-55
2024/04/04 00:58:29;;;;;;;;;;;7.70;99.90;;;;;;4976115;28;19956;-53
2024/04/04 01:00:55;;;;;;;;;;;7.80;99.90;;;;;;4975722;28;19910;-55
2024/04/04 01:03:20;;;;;;;;;;;7.80;99.90;;;;;;4976031;28;19906;-54
2024/04/04 01:05:46;;;;;;;;;;;7.90;99.90;;;;;;4975834;28;20031;-55
2024/04/04 01:08:13;;;;;;;;;;;7.90;99.90;;;;;;4975584;28;20457;-54
2024/04/04 01:10:39;;;;;;;;;;;8.00;99.90;;;;;;4976057;28;19909;-53
2024/04/04 01:13:05;;;;;;;;;;;8.10;99.90;;;;;;4976053;28;19968;-53
2024/04/04 01:15:30;;;;;;;;;;;8.10;99.90;;;;;;4975830;28;19937;-55
2024/04/04 01:17:59;;;;;;;;;;;8.20;99.90;;;;;;4975747;28;19906;-54
2024/04/04 01:20:25;;;;;;;;;;;8.20;99.90;;;;;;4975802;28;19929;-56
2024/04/04 01:22:50;;;;;;;;;;;8.30;99.90;;;;;;4975972;28;19952;-54
2024/04/04 01:25:16;;;;;;;;;;;8.30;99.90;;;;;;4975851;28;20386;-52
2024/04/04 01:27:41;;;;;;;;;;;8.40;99.90;;;;;;4975350;28;19965;-56
2024/04/04 01:30:07;;;;;;;;;;;8.40;99.90;;;;;;4975381;28;19913;-52
2024/04/04 01:32:32;;;;;;;;;;;8.40;99.90;;;;;;4976266;28;19914;-53
2024/04/04 01:34:58;;;;;;;;;;;8.40;99.90;;;;;;4976106;28;19906;-54
2024/04/04 01:37:23;;;;;;;;;;;8.40;99.90;;;;;;4975716;28;20358;-55
2024/04/04 01:39:49;;;;;;;;;;;8.50;99.90;;;;;;4975178;28;19953;-54
2024/04/04 01:42:14;;;;;;;;;;;8.50;99.90;;;;;;4975366;28;19906;-51
2024/04/04 01:44:40;;;;;;;;;;;8.50;99.90;;;;;;4975414;28;20408;-56
2024/04/04 01:47:05;;;;;;;;;;;8.50;99.90;;;;;;4975055;28;19910;-56
2024/04/04 01:49:30;;;;;;;;;;;8.50;99.90;;;;;;4975252;28;19961;-52
2024/04/04 01:51:56;;;;;;;;;;;8.60;99.90;;;;;;4975030;28;19999;-55
2024/04/04 01:54:22;;;;;;;;;;;8.60;99.90;;;;;;4975013;28;19980;-55
2024/04/04 01:56:47;;;;;;;;;;;8.60;99.90;;;;;;4974858;28;19922;-53
2024/04/04 01:59:12;;;;;;;;;;;8.60;99.90;;;;;;4975091;28;19910;-55
2024/04/04 02:01:38;;;;;;;;;;;8.70;99.90;;;;;;4974585;28;19913;-53
2024/04/04 02:04:03;;;;;;;;;;;8.70;99.90;;;;;;4974780;28;19906;-53
2024/04/04 02:06:29;;;;;;;;;;;8.70;99.90;;;;;;4974479;28;20396;-53
2024/04/04 02:08:54;;;;;;;;;;;8.70;99.90;;;;;;4973553;28;19910;-54
2024/04/04 02:11:20;;;;;;;;;;;8.70;99.90;;;;;;4972497;28;19946;-56
2024/04/04 02:13:46;;;;;;;;;;;8.70;99.90;;;;;;4973300;28;19910;-53
2024/04/04 02:16:12;;;;;;;;;;;8.60;99.90;;;;;;4973796;28;20358;-52
2024/04/04 02:18:37;;;;;;;;;;;8.60;99.90;;;;;;4973024;28;19941;-54
2024/04/04 02:21:04;;;;;;;;;;;8.60;99.90;;;;;;4974177;28;19909;-51
2024/04/04 02:23:30;;;;;;;;;;;8.70;99.90;;;;;;4956281;28;19914;-51
2024/04/04 02:25:56;;;;;;;;;;;8.70;99.90;;;;;;4955654;28;19920;-52
2024/04/04 02:28:22;;;;;;;;;;;8.80;99.90;;;;;;4973187;28;19910;-50
2024/04/04 02:30:47;;;;;;;;;;;8.80;99.90;;;;;;4973508;28;19909;-50
2024/04/04 02:33:13;;;;;;;;;;;8.80;99.90;;;;;;4973659;28;19918;-54
2024/04/04 02:35:39;;;;;;;;;;;8.90;99.90;;;;;;4973198;28;20349;-51
2024/04/04 02:38:06;;;;;;;;;;;8.90;99.90;;;;;;4972445;28;20417;-53
2024/04/04 02:40:31;;;;;;;;;;;9.00;99.90;;;;;;4973311;28;19918;-51
2024/04/04 02:42:57;;;;;;;;;;;9.00;99.90;;;;;;4973222;28;19914;-52
2024/04/04 02:45:22;;;;;;;;;;;9.10;99.90;;;;;;4973390;28;19917;-51
2024/04/04 02:47:48;;;;;;;;;;;9.10;99.90;;;;;;4973522;28;20343;-52
2024/04/04 02:50:14;;;;;;;;;;;9.20;99.90;;;;;;4972763;28;19909;-52
2024/04/04 02:52:39;;;;;;;;;;;9.30;99.90;;;;;;4972825;28;19910;-52
2024/04/04 02:55:05;;;;;;;;;;;9.30;99.90;;;;;;4972950;28;19920;-54
2024/04/04 02:57:31;;;;;;;;;;;9.30;99.90;;;;;;4973106;28;20389;-52
2024/04/04 02:59:56;;;;;;;;;;;9.30;99.90;;;;;;4973114;28;20000;-54
2024/04/04 03:02:22;;;;;;;;;;;9.40;99.90;;;;;;4973379;28;19914;-54
2024/04/04 03:04:48;;;;;;;;;;;9.40;99.90;;;;;;4973126;28;20389;-53
2024/04/04 03:07:13;;;;;;;;;;;9.40;99.90;;;;;;4972839;28;19918;-53
2024/04/04 03:09:39;;;;;;;;;;;9.40;99.90;;;;;;4973367;28;19910;-50
2024/04/04 03:12:04;;;;;;;;;;;9.40;99.90;;;;;;4972904;28;19950;-52
2024/04/04 03:14:30;;;;;;;;;;;9.40;99.90;;;;;;4975416;28;19910;-52
2024/04/04 03:16:55;;;;;;;;;;;9.40;99.90;;;;;;4973288;28;19910;-52
2024/04/04 03:19:21;;;;;;;;;;;9.40;99.90;;;;;;4975078;28;19910;-54
2024/04/04 03:21:46;;;;;;;;;;;9.40;99.90;;;;;;4976653;28;19909;-54
2024/04/04 03:24:12;;;;;;;;;;;9.40;99.90;;;;;;4976776;28;19921;-50
2024/04/04 03:26:37;;;;;;;;;;;9.50;99.90;;;;;;4977305;28;19910;-51
2024/04/04 03:29:02;;;;;;;;;;;9.40;99.90;;;;;;4977195;28;19921;-53
2024/04/04 03:31:28;;;;;;;;;;;9.40;99.90;;;;;;4976933;28;19993;-51
2024/04/04 03:33:54;;;;;;;;;;;9.40;99.90;;;;;;4975897;28;20401;-50
2024/04/04 03:36:19;;;;;;;;;;;9.40;99.90;;;;;;4976845;28;19985;-54
2024/04/04 03:38:45;;;;;;;;;;;9.40;99.90;;;;;;4976626;28;20434;-53
2024/04/04 03:41:10;;;;;;;;;;;9.40;99.90;;;;;;4977072;28;19949;-53
2024/04/04 03:43:36;;;;;;;;;;;9.50;99.90;;;;;;4976468;28;20370;-52
2024/04/04 03:46:02;;;;;;;;;;;9.50;99.90;;;;;;4977017;28;19910;-55
2024/04/04 03:48:28;;;;;;;;;;;9.50;99.90;;;;;;4976768;28;20374;-50
2024/04/04 03:50:53;;;;;;;;;;;9.50;99.90;;;;;;4978086;28;20070;-53
2024/04/04 03:53:19;;;;;;;;;;;9.50;99.90;;;;;;4976152;28;19949;-51
2024/04/04 03:55:44;;;;;;;;;;;9.50;99.90;;;;;;4975790;28;19906;-51
2024/04/04 03:58:10;;;;;;;;;;;9.50;99.90;;;;;;4976384;28;19909;-55
2024/04/04 04:00:35;;;;;;;;;;;9.50;99.90;;;;;;4976174;28;19910;-54
2024/04/04 04:03:01;;;;;;;;;;;9.60;99.90;;;;;;4976028;28;19975;-51
2024/04/04 04:05:26;;;;;;;;;;;9.60;99.90;;;;;;4974961;28;19914;-51
2024/04/04 04:07:52;;;;;;;;;;;9.60;99.90;;;;;;4975322;28;19914;-54
2024/04/04 04:10:18;;;;;;;;;;;9.60;99.90;;;;;;4976139;28;19913;-50
2024/04/04 04:12:43;;;;;;;;;;;9.60;99.90;;;;;;4975769;28;20370;-50
2024/04/04 04:15:10;;;;;;;;;;;9.60;99.90;;;;;;4975253;28;19910;-51
2024/04/04 04:17:35;;;;;;;;;;;9.70;99.90;;;;;;4975567;28;20453;-51
2024/04/04 04:21:16;;;;;;;;;;;9.70;99.90;;;;;;4975401;28;20001;-50
2024/04/04 04:22:47;;;;;;;;;;;9.70;99.90;;;;;;4975711;28;19957;-54
2024/04/04 04:25:12;;;;;;;;;;;9.70;99.90;;;;;;4975671;28;20338;-53
2024/04/04 04:27:37;;;;;;;;;;;9.70;99.90;;;;;;4958393;28;19946;-52
2024/04/04 04:30:04;;;;;;;;;;;9.80;99.90;;;;;;4974881;28;19910;-53
2024/04/04 04:32:29;;;;;;;;;;;9.80;99.90;;;;;;4975752;28;19921;-51
2024/04/04 04:34:54;;;;;;;;;;;9.90;99.90;;;;;;4975395;28;19910;-50
2024/04/04 04:37:20;;;;;;;;;;;9.90;99.90;;;;;;4975101;28;19925;-52
2024/04/04 04:39:45;;;;;;;;;;;10.00;99.90;;;;;;4975675;28;20297;-55
2024/04/04 04:42:11;;;;;;;;;;;10.00;99.90;;;;;;4976062;28;19906;-50
2024/04/04 04:44:36;;;;;;;;;;;10.00;99.90;;;;;;4974499;28;19910;-52
2024/04/04 04:47:02;;;;;;;;;;;10.10;99.90;;;;;;4974942;28;19910;-51
2024/04/04 04:49:27;;;;;;;;;;;10.10;99.90;;;;;;4975077;28;20399;-52
2024/04/04 04:51:53;;;;;;;;;;;10.10;99.90;;;;;;4975128;28;20374;-52
2024/04/04 04:54:18;;;;;;;;;;;10.20;99.90;;;;;;4974684;28;19914;-51
2024/04/04 04:56:44;;;;;;;;;;;10.20;99.90;;;;;;4975270;28;19913;-53
2024/04/04 04:59:09;;;;;;;;;;;10.20;99.90;;;;;;4974585;28;19917;-52
2024/04/04 05:01:37;;;;;;;;;;;10.30;99.90;;;;;;4975307;28;19961;-54
2024/04/04 05:04:02;;;;;;;;;;;10.30;99.90;;;;;;4974760;28;19917;-52
2024/04/04 05:06:28;;;;;;;;;;;10.30;99.90;;;;;;4975408;28;20363;-52
2024/04/04 05:08:54;;;;;;;;;;;10.40;99.90;;;;;;4975390;28;19910;-51
2024/04/04 05:11:19;;;;;;;;;;;10.40;99.90;;;;;;4974484;28;20401;-51
2024/04/04 05:13:45;;;;;;;;;;;10.40;99.90;;;;;;4975565;28;19914;-54
2024/04/04 05:16:10;;;;;;;;;;;10.40;99.90;;;;;;4974578;28;19913;-50
2024/04/04 05:18:36;;;;;;;;;;;10.40;99.90;;;;;;4973525;28;19922;-50
2024/04/04 05:21:03;;;;;;;;;;;10.50;99.90;;;;;;4974168;28;20437;-53
2024/04/04 05:23:28;;;;;;;;;;;10.50;99.90;;;;;;4957157;28;19913;-51
2024/04/04 05:25:54;;;;;;;;;;;10.50;99.90;;;;;;4974173;28;20021;-51
2024/04/04 05:28:25;;;;;;;;;;;10.50;99.90;;;;;;4974168;28;19910;-54
2024/04/04 05:30:51;;;;;;;;;;;10.60;99.90;;;;;;4974130;28;19929;-50
2024/04/04 05:33:16;;;;;;;;;;;10.60;99.90;;;;;;4973607;28;19917;-52
2024/04/04 05:35:41;;;;;;;;;;;10.60;99.90;;;;;;4974887;28;19910;-53
2024/04/04 05:38:07;;;;;;;;;;;10.60;99.90;;;;;;4973390;28;20282;-51
2024/04/04 05:40:35;;;;;;;;;;;10.60;99.90;;;;;;4956829;28;19914;-51
2024/04/04 05:43:00;;;;;;;;;;;10.60;99.90;;;;;;4974085;28;19980;-55
2024/04/04 05:45:25;;;;;;;;;;;10.70;99.90;;;;;;4974585;28;20363;-50
2024/04/04 05:47:51;;;;;;;;;;;10.70;99.90;;;;;;4973986;28;19910;-52
2024/04/04 05:50:16;;;;;;;;;;;10.70;99.90;;;;;;4973951;28;19933;-52
2024/04/04 05:52:42;;;;;;;;;;;10.80;99.90;;;;;;4974802;28;19914;-55
2024/04/04 05:55:13;;;;;;;;;;;10.80;99.90;;;;;;4973110;28;20000;-50
2024/04/04 05:57:38;;;;;;;;;;;10.80;99.90;;;;;;4973274;28;19953;-52
2024/04/04 06:00:05;;;;;;;;;;;10.80;99.90;;;;;;4974062;28;19913;-52
2024/04/04 06:02:30;;;;;;;;;;;10.90;99.90;;;;;;4973941;28;19910;-53
2024/04/04 06:04:56;;;;;;;;;;;10.90;99.90;;;;;;4971517;28;19916;-52
2024/04/04 06:07:21;;;;;;;;;;;10.90;99.90;;;;;;4973525;28;19921;-52
2024/04/04 06:09:47;;;;;;;;;;;11.00;99.90;;;;;;4973740;28;19953;-51
2024/04/04 06:12:13;;;;;;;;;;;11.00;99.90;;;;;;4971254;28;20406;-52
2024/04/04 06:14:38;;;;;;;;;;;11.00;99.90;;;;;;4969181;28;19953;-52
2024/04/04 06:17:04;;;;;;;;;;;11.00;99.90;;;;;;4969283;28;19921;-55
2024/04/04 06:19:29;;;;;;;;;;;11.00;99.90;;;;;;4969387;28;19914;-50
2024/04/04 06:21:56;;;;;;;;;;;11.00;99.90;;;;;;4968846;28;19914;-55
2024/04/04 06:24:22;;;;;;;;;;;11.00;99.90;;;;;;4969537;28;19918;-52
2024/04/04 06:26:49;;;;;;;;;;;11.00;99.90;;;;;;4969113;28;19918;-53
2024/04/04 06:29:15;;;;;;;;;;;11.00;99.90;;;;;;4968537;28;20395;-54
2024/04/04 06:31:41;;;;;;;;;;;11.00;99.90;;;;;;4969840;28;20000;-51
2024/04/04 06:34:06;;;;;;;;;;;11.10;99.90;;;;;;4968481;28;20012;-52
2024/04/04 06:36:32;;;;;;;;;;;11.00;99.90;;;;;;4968658;28;19984;-55
2024/04/04 06:39:02;;;;;;;;;;;11.00;99.90;;;;;;4969550;28;19930;-55
2024/04/04 06:41:28;;;;;;;;;;;11.00;99.90;;;;;;4969032;28;20000;-53
2024/04/04 06:43:53;;;;;;;;;;;10.90;99.90;;;;;;4969407;28;19910;-53
2024/04/04 06:46:19;;;;;;;;;;;11.00;99.90;;;;;;4969104;28;20579;-53
2024/04/04 06:48:44;;;;;;;;;;;11.00;99.90;;;;;;4969654;28;19965;-54
2024/04/04 06:51:10;;;;;;;;;;;11.10;99.90;;;;;;4969639;28;19917;-55
2024/04/04 06:53:37;;;;;;;;;;;11.10;99.90;;;;;;4968628;28;19925;-52
2024/04/04 06:56:03;;;;;;;;;;;11.10;99.90;;;;;;4969315;28;19936;-53
2024/04/04 06:58:29;;;;;;;;;;;11.10;99.90;;;;;;4963768;28;19926;-54
2024/04/04 07:00:58;;;;;;;;;;;11.20;99.90;;;;;;4970021;28;20286;-55
2024/04/04 07:03:24;;;;;;;;;;;11.20;99.90;;;;;;4952349;28;20058;-55
2024/04/04 07:05:50;;;;;;;;;;;11.20;99.90;;;;;;4970268;28;20016;-54
2024/04/04 07:08:16;;;;;;;;;;;11.20;99.90;;;;;;4967826;28;19918;-52
2024/04/04 07:10:42;;;;;;;;;;;11.20;99.90;;;;;;4969865;28;20662;-54
2024/04/04 07:13:07;;;;;;;;;;;11.30;99.90;;;;;;4970382;28;19961;-52
2024/04/04 07:15:33;;;;;;;;;;;11.30;99.90;;;;;;4969554;28;20008;-50
2024/04/04 07:17:58;;;;;;;;;;;11.40;99.90;;;;;;4969510;28;20305;-55
2024/04/04 07:20:24;;;;;;;;;;;11.40;99.90;;;;;;4969571;28;19913;-53
2024/04/04 07:22:50;;;;;;;;;;;11.40;99.90;;;;;;4969971;28;19977;-53
2024/04/04 07:25:16;;;;;;;;;;;11.40;99.90;;;;;;4969640;28;21165;-53
2024/04/04 07:27:42;;;;;;;;;;;11.40;99.90;;;;;;4969411;28;19918;-55
2024/04/04 07:30:08;;;;;;;;;;;11.50;99.90;;;;;;4968721;28;20371;-54
2024/04/04 07:32:33;;;;;;;;;;;11.60;99.90;;;;;;4969287;28;19921;-53
2024/04/04 07:35:01;;;;;;;;;;;11.60;99.90;;;;;;4969530;28;19918;-51
2024/04/04 07:37:27;;;;;;;;;;;11.60;99.90;;;;;;4968623;28;19913;-55
2024/04/04 07:39:52;;;;;;;;;;;11.60;99.90;;;;;;4969537;28;20137;-55
2024/04/04 07:42:19;;;;;;;;;;;11.60;99.90;;;;;;4969531;28;19910;-56
2024/04/04 07:44:45;;;;;;;;;;;11.70;99.90;;;;;;4969097;28;19996;-55
2024/04/04 07:47:10;;;;;;;;;;;11.70;99.90;;;;;;4969193;28;20069;-57
2024/04/04 07:49:36;;;;;;;;;;;11.70;99.90;;;;;;4969659;28;19914;-57
2024/04/04 07:52:01;;;;;;;;;;;11.70;99.90;;;;;;4969439;28;19914;-57
2024/04/04 07:54:27;;;;;;;;;;;11.70;99.90;;;;;;4968658;28;20004;-57
2024/04/04 07:56:52;;;;;;;;;;;11.70;99.90;;;;;;4968952;28;19910;-57
2024/04/04 07:59:18;;;;;;;;;;;11.80;99.90;;;;;;4969033;28;20298;-58
2024/04/04 08:01:44;;;;;;;;;;;11.80;99.90;;;;;;4972405;28;19984;-56
2024/04/04 08:04:09;;;;;;;;;;;11.90;99.90;;;;;;4970815;28;20523;-53
2024/04/04 08:06:35;;;;;;;;;;;11.90;99.90;;;;;;4955020;28;19932;-54
2024/04/04 08:09:00;;;;;;;;;;;11.90;99.90;;;;;;5024223;23;20015;-52
2024/04/04 08:11:26;;;;;;;;;;;12.00;99.90;;;;;;5019555;28;19988;-52
2024/04/04 08:13:52;;;;;;;;;;;11.90;99.90;;;;;;5018796;28;19917;-51
2024/04/04 08:16:17;;;;;;;;;;;11.90;99.90;;;;;;5018957;28;19913;-53
2024/04/04 08:18:43;;;;;;;;;;;11.90;99.90;;;;;;5007492;28;19964;-50
2024/04/04 08:21:09;;;;;;;;;;;11.90;99.90;;;;;;4990427;28;19913;-50
2024/04/04 08:23:34;;;;;;;;;;;11.90;99.90;;;;;;4998360;28;19913;-53
2024/04/04 08:26:04;;;;;;;;;;;12.00;99.90;;;;;;4997871;28;19922;-51
2024/04/04 08:28:30;;;;;;;;;;;12.00;99.90;;;;;;4997569;28;19921;-51
2024/04/04 08:31:06;;;;;;;;;;;12.00;99.90;;;;;;4998853;28;19921;-50
2024/04/04 08:33:33;;;;;;;;;;;12.00;99.90;;;;;;5002335;28;19928;-53
2024/04/04 08:35:59;;;;;;;;;;;12.00;99.90;;;;;;4998982;28;19917;-54
2024/04/04 08:38:25;;;;;;;;;;;12.10;99.90;;;;;;5000710;28;20333;-51
2024/04/04 08:40:51;;;;;;;;;;;12.00;99.90;;;;;;5000132;28;20000;-54
2024/04/04 08:43:17;;;;;;;;;;;12.00;99.90;;;;;;4999674;28;19935;-52
2024/04/04 08:45:46;;;;;;;;;;;12.00;99.90;;;;;;4996645;28;20281;-53
2024/04/04 08:48:13;;;;;;;;;;;12.00;99.90;;;;;;4998546;28;19957;-56
2024/04/04 08:50:43;;;;;;;;;;;12.00;99.90;;;;;;4999105;28;19996;-54
2024/04/04 08:53:09;;;;;;;;;;;12.00;99.90;;;;;;4997997;28;20343;-56
2024/04/04 08:55:35;;;;;;;;;;;12.00;99.90;;;;;;5000719;28;19917;-54
2024/04/04 08:58:00;;;;;;;;;;;12.10;99.90;;;;;;4999036;28;19909;-53
2024/04/04 09:00:26;;;;;;;;;;;12.10;99.90;;;;;;4999744;28;20665;-52
2024/04/04 09:02:52;;;;;;;;;;;12.20;99.90;;;;;;4999826;28;19921;-54
2024/04/04 09:05:17;;;;;;;;;;;12.20;99.90;;;;;;5001806;28;20281;-52
2024/04/04 09:07:43;;;;;;;;;;;12.30;99.90;;;;;;4981608;28;20004;-53
2024/04/04 09:10:12;;;;;;;;;;;12.30;99.90;;;;;;4999591;28;19945;-55
2024/04/04 09:12:38;;;;;;;;;;;12.40;99.90;;;;;;4997069;28;19917;-50
2024/04/04 09:15:04;;;;;;;;;;;12.60;99.90;;;;;;4998668;28;19960;-51
2024/04/04 09:17:30;;;;;;;;;;;12.80;99.90;;;;;;4997500;28;19913;-50
2024/04/04 09:19:56;;;;;;;;;;;13.00;99.90;;;;;;4999271;28;19925;-53
2024/04/04 09:22:23;;;;;;;;;;;13.10;99.90;;;;;;4996115;28;19917;-54
2024/04/04 09:24:48;;;;;;;;;;;13.10;99.90;;;;;;4996352;28;19917;-51
2024/04/04 09:27:17;;;;;;;;;;;13.10;99.90;;;;;;4999779;28;19917;-52
2024/04/04 09:29:43;;;;;;;;;;;13.10;99.90;;;;;;4999266;28;19923;-52
2024/04/04 09:32:09;;;;;;;;;;;13.10;99.90;;;;;;4996758;28;19917;-53
2024/04/04 09:34:35;;;;;;;;;;;13.10;99.90;;;;;;4998374;28;19949;-52
2024/04/04 09:37:01;;;;;;;;;;;13.10;99.90;;;;;;4998798;28;19913;-53
2024/04/04 09:39:28;;;;;;;;;;;13.00;99.90;;;;;;4997744;28;20395;-51
2024/04/04 09:41:54;;;;;;;;;;;12.90;99.90;;;;;;4998575;28;19955;-52
2024/04/04 09:44:19;;;;;;;;;;;12.90;99.90;;;;;;4997226;28;19924;-52
2024/04/04 09:46:46;;;;;;;;;;;13.00;99.90;;;;;;4997197;28;19921;-55
2024/04/04 09:49:11;;;;;;;;;;;13.20;99.90;;;;;;4997980;28;19917;-54
2024/04/04 09:51:38;;;;;;;;;;;13.40;99.90;;;;;;4999323;28;20008;-54
2024/04/04 09:54:04;;;;;;;;;;;13.50;99.90;;;;;;4998903;28;19925;-56
2024/04/04 09:56:30;;;;;;;;;;;13.60;99.90;;;;;;4998047;28;19952;-53
2024/04/04 09:58:55;;;;;;;;;;;13.60;99.90;;;;;;5000379;28;19913;-54
2024/04/04 10:01:21;;;;;;;;;;;13.60;99.90;;;;;;4997596;28;19918;-55
2024/04/04 10:03:48;;;;;;;;;;;13.80;99.90;;;;;;4998299;28;20393;-53
2024/04/04 10:06:29;;;;;;;;;;;14.10;99.90;;;;;;4997673;28;20448;-53
2024/04/04 10:08:56;;;;;;;;;;;14.50;99.90;;;;;;4986651;28;20009;-57
2024/04/04 10:11:33;;;;;;;;;;;14.70;99.90;;;;;;4997680;28;20249;-56
2024/04/04 10:13:59;;;;;;;;;;;14.80;99.90;;;;;;4997366;28;19910;-51
2024/04/04 10:16:32;;;;;;;;;;;14.70;99.90;;;;;;4997023;28;19921;-53
2024/04/04 10:18:57;;;;;;;;;;;14.60;99.90;;;;;;4998687;28;19944;-52
2024/04/04 10:21:26;;;;;;;;;;;14.50;99.90;;;;;;5000190;28;19957;-55
2024/04/04 10:23:53;;;;;;;;;;;14.30;99.90;;;;;;4979284;28;20016;-54
2024/04/04 10:26:18;;;;;;;;;;;14.00;99.90;;;;;;4998062;28;19995;-52
2024/04/04 10:28:47;;;;;;;;;;;13.80;99.90;;;;;;4999645;28;19918;-54
2024/04/04 10:31:12;;;;;;;;;;;13.50;99.90;;;;;;4996141;28;19910;-53
2024/04/04 10:33:38;;;;;;;;;;;13.30;99.90;;;;;;4997085;28;19940;-55
2024/04/04 10:36:06;;;;;;;;;;;13.20;99.90;;;;;;4999073;28;19972;-53
2024/04/04 10:38:33;;;;;;;;;;;13.30;99.90;;;;;;4997270;28;20319;-50
2024/04/04 10:40:58;;;;;;;;;;;13.20;99.90;;;;;;4995345;28;20368;-54
2024/04/04 10:43:24;;;;;;;;;;;13.20;99.90;;;;;;4994416;28;19921;-54
2024/04/04 10:45:49;;;;;;;;;;;13.20;99.90;;;;;;4997657;28;20428;-55
2024/04/04 10:48:15;;;;;;;;;;;13.20;99.90;;;;;;4997766;28;20012;-54
2024/04/04 10:50:40;;;;;;;;;;;13.20;99.90;;;;;;4999019;28;19909;-53
2024/04/04 10:53:06;;;;;;;;;;;13.20;99.90;;;;;;4996436;28;19921;-57
2024/04/04 10:55:33;;;;;;;;;;;13.20;99.90;;;;;;4995770;28;19997;-55
2024/04/04 10:57:58;;;;;;;;;;;13.10;99.90;;;;;;4995635;28;19943;-53
2024/04/04 11:00:28;;;;;;;;;;;13.10;99.90;;;;;;4996534;28;19913;-50
2024/04/04 11:02:54;;;;;;;;;;;13.10;99.90;;;;;;4997803;28;20388;-55
2024/04/04 11:05:19;;;;;;;;;;;13.10;99.90;;;;;;4997666;28;19932;-54
2024/04/04 11:07:46;;;;;;;;;;;13.10;99.90;;;;;;4983354;28;19972;-56
2024/04/04 11:10:15;;;;;;;;;;;13.30;99.90;;;;;;4997472;28;19917;-54
2024/04/04 11:12:43;;;;;;;;;;;13.30;99.90;;;;;;4994778;28;19910;-53
2024/04/04 11:15:10;;;;;;;;;;;13.30;99.90;;;;;;4995380;28;20313;-54
2024/04/04 11:17:36;;;;;;;;;;;13.30;99.90;;;;;;4995503;28;19917;-53
2024/04/04 11:20:04;;;;;;;;;;;13.30;99.90;;;;;;4994229;28;19968;-52
2024/04/04 11:22:31;;;;;;;;;;;13.20;99.90;;;;;;4995638;28;20554;-52
2024/04/04 11:24:56;;;;;;;;;;;13.20;99.90;;;;;;4995370;28;20008;-52
2024/04/04 11:27:22;;;;;;;;;;;13.20;99.90;;;;;;4996794;28;19992;-55
2024/04/04 11:29:47;;;;;;;;;;;13.10;99.90;;;;;;4997020;28;19972;-55
2024/04/04 11:32:13;;;;;;;;;;;13.00;99.90;;;;;;4997448;28;20374;-51
2024/04/04 11:34:38;;;;;;;;;;;13.00;99.90;;;;;;4998198;28;19940;-51
2024/04/04 11:37:04;;;;;;;;;;;13.00;99.90;;;;;;4999346;28;19918;-52
2024/04/04 11:39:29;;;;;;;;;;;12.90;99.90;;;;;;4998278;28;19971;-52
2024/04/04 11:41:56;;;;;;;;;;;12.90;99.90;;;;;;5001337;28;20024;-53
2024/04/04 11:44:21;;;;;;;;;;;12.90;99.90;;;;;;5000395;28;20013;-55
2024/04/04 11:46:47;;;;;;;;;;;13.00;99.90;;;;;;4998059;28;19917;-54
2024/04/04 11:49:16;;;;;;;;;;;12.90;99.90;;;;;;5001120;28;20032;-53
2024/04/04 11:51:42;;;;;;;;;;;12.90;99.90;;;;;;4997420;28;19957;-50
2024/04/04 11:54:07;;;;;;;;;;;12.90;99.90;;;;;;5001134;28;20384;-51
2024/04/04 11:56:33;;;;;;;;;;;12.90;99.90;;;;;;4999948;28;19972;-54
2024/04/04 11:59:00;;;;;;;;;;;13.00;99.90;;;;;;4999273;28;19964;-54
2024/04/04 12:01:25;;;;;;;;;;;13.00;99.90;;;;;;4998130;28;20415;-49
2024/04/04 12:03:51;;;;;;;;;;;13.00;99.90;;;;;;4999754;28;19909;-53
2024/04/04 12:06:16;;;;;;;;;;;12.80;99.90;;;;;;4997162;28;20427;-53
2024/04/04 12:08:42;;;;;;;;;;;12.30;99.90;;;;;;4980853;28;19956;-51
2024/04/04 12:11:09;;;;;;;;;;;11.80;99.90;;;;;;4996873;28;19917;-54
2024/04/04 12:13:35;;;;;;;;;;;11.40;99.90;;;;;;5000566;28;20305;-49
2024/04/04 12:16:00;;;;;;;;;;;11.10;99.90;;;;;;4999757;28;19913;-51
2024/04/04 12:21:14;;;;;;;;;;;11.00;99.90;;;;;;4997807;28;19924;-52
2024/04/04 12:23:40;;;;;;;;;;;10.80;99.90;;;;;;4998908;28;19916;-55
2024/04/04 12:26:07;;;;;;;;;;;10.70;99.90;;;;;;4998691;28;20303;-55
2024/04/04 12:28:33;;;;;;;;;;;10.70;99.90;;;;;;4998815;28;20373;-53
2024/04/04 12:30:58;;;;;;;;;;;10.80;99.90;;;;;;4998986;28;19920;-54
2024/04/04 12:33:24;;;;;;;;;;;10.80;99.90;;;;;;5001668;28;20432;-53
2024/04/04 12:35:53;;;;;;;;;;;10.70;99.90;;;;;;4997869;28;19918;-51
2024/04/04 12:38:22;;;;;;;;;;;10.70;99.90;;;;;;4999336;28;19917;-53
2024/04/04 12:40:47;;;;;;;;;;;10.60;99.90;;;;;;5000062;28;20312;-51
2024/04/04 12:43:13;;;;;;;;;;;10.60;99.90;;;;;;4999964;28;19925;-51
2024/04/04 12:45:38;;;;;;;;;;;10.60;99.90;;;;;;4998730;28;19960;-53
2024/04/04 12:48:04;;;;;;;;;;;10.60;99.90;;;;;;4999835;28;19910;-52
2024/04/04 12:50:30;;;;;;;;;;;10.60;99.90;;;;;;5001132;28;20358;-54
2024/04/04 12:52:55;;;;;;;;;;;10.60;99.90;;;;;;4999138;28;19906;-53
2024/04/04 12:55:21;;;;;;;;;;;10.70;99.90;;;;;;5000979;28;19928;-53
2024/04/04 12:57:46;;;;;;;;;;;10.60;99.90;;;;;;4998575;28;20480;-52
2024/04/04 13:00:12;;;;;;;;;;;10.60;99.90;;;;;;4999194;28;19976;-53
2024/04/04 13:02:38;;;;;;;;;;;10.50;99.90;;;;;;4999717;28;19976;-51
2024/04/04 13:05:05;;;;;;;;;;;10.40;99.90;;;;;;4999915;28;19925;-51
2024/04/04 13:07:31;;;;;;;;;;;10.40;99.90;;;;;;4998824;28;19910;-53
2024/04/04 13:09:56;;;;;;;;;;;10.40;99.90;;;;;;4978780;28;20262;-52
2024/04/04 13:12:21;;;;;;;;;;;10.50;99.90;;;;;;5000023;28;19944;-52
2024/04/04 13:14:48;;;;;;;;;;;10.70;99.90;;;;;;4998775;28;19917;-50
2024/04/04 13:17:13;;;;;;;;;;;11.20;99.90;;;;;;5000185;28;20354;-53
2024/04/04 13:19:39;;;;;;;;;;;11.80;99.90;;;;;;4998130;28;19949;-51
2024/04/04 13:22:05;;;;;;;;;;;12.10;99.90;;;;;;4997456;28;19996;-49
2024/04/04 13:24:31;;;;;;;;;;;12.40;99.90;;;;;;5000158;28;19925;-53
2024/04/04 13:26:56;;;;;;;;;;;12.50;99.90;;;;;;4998209;28;19922;-51
2024/04/04 13:29:22;;;;;;;;;;;12.60;99.90;;;;;;4999266;28;20490;-51
2024/04/04 13:31:47;;;;;;;;;;;12.70;99.90;;;;;;4996908;28;19968;-54
2024/04/04 13:34:13;;;;;;;;;;;12.70;99.90;;;;;;4999017;28;19965;-50
2024/04/04 13:36:38;;;;;;;;;;;12.80;99.90;;;;;;4999201;28;20341;-53
2024/04/04 13:39:06;;;;;;;;;;;12.70;99.90;;;;;;4998533;28;19928;-52
2024/04/04 13:41:31;;;;;;;;;;;12.60;99.90;;;;;;4998695;28;20285;-53
2024/04/04 13:43:56;;;;;;;;;;;12.50;99.90;;;;;;4997305;28;19921;-54
2024/04/04 13:46:22;;;;;;;;;;;12.50;99.90;;;;;;4998003;28;19920;-56
2024/04/04 13:48:48;;;;;;;;;;;12.40;99.90;;;;;;4997754;28;19914;-53
2024/04/04 13:51:13;;;;;;;;;;;12.40;99.90;;;;;;4999580;28;19988;-51
2024/04/04 13:53:39;;;;;;;;;;;12.30;99.90;;;;;;4997165;28;20056;-54
2024/04/04 13:56:05;;;;;;;;;;;12.30;99.90;;;;;;5000031;28;19917;-49
2024/04/04 13:58:30;;;;;;;;;;;12.30;99.90;;;;;;4996560;28;19914;-53
2024/04/04 14:00:56;;;;;;;;;;;12.30;99.90;;;;;;4995571;28;19924;-57
2024/04/04 14:03:21;;;;;;;;;;;12.30;99.90;;;;;;4997608;28;19976;-52
2024/04/04 14:05:47;;;;;;;;;;;12.60;99.90;;;;;;4997891;28;19918;-53
2024/04/04 14:08:14;;;;;;;;;;;12.70;99.90;;;;;;4994414;28;19921;-52
2024/04/04 14:10:39;;;;;;;;;;;13.10;99.90;;;;;;5032933;23;20062;-81
2024/04/04 14:13:06;;;;;;;;;;;13.40;99.90;;;;;;4999209;28;19960;-82
2024/04/04 14:15:31;;;;;;;;;;;13.60;99.90;;;;;;4999278;28;19905;-82